This is the latest recevied weather packets stored in our database for station/object DL8FX-6. If no packets are shown the sender has not sent any weather packets the latest 10 day(s).
| Time | Temp. | Humidity | Pressure | Rain* | Wind** | Luminosity | Snow |
|---|---|---|---|---|---|---|---|
| 1777826419 | 28.33° C | 28% | 1007.3 hPa | 0 mm | - | - | - |
| 1777824084 | 28.33° C | 24% | 1007.8 hPa | 0 mm | - | - | - |
| 1777820441 | 30° C | 21% | 1008.1 hPa | 0 mm | - | - | - |
| 1777819233 | 30° C | 21% | 1008.2 hPa | 0 mm | - | - | - |
| 1777817421 | 30° C | 21% | 1008.7 hPa | 0 mm | - | - | - |
| 1777816274 | 30° C | 21% | 1008.7 hPa | 0 mm | - | - | - |
| 1777815670 | 30° C | 21% | 1008.9 hPa | 0 mm | - | - | - |
| 1777813858 | 30.56° C | 20% | 1009 hPa | 0 mm | - | - | - |
| 1777812650 | 30° C | 22% | 1009.1 hPa | 0 mm | - | - | - |
| 1777810838 | 29.44° C | 23% | 1009.2 hPa | 0 mm | - | - | - |
| 1777809630 | 28.89° C | 23% | 1009.5 hPa | 0 mm | - | - | - |
| 1777806669 | 29.44° C | 21% | 1009.9 hPa | 0 mm | - | - | - |
| 1777805461 | 30.56° C | 21% | 1010 hPa | 0 mm | - | - | - |
| 1777804253 | 30° C | 22% | 1010.2 hPa | 0 mm | - | - | - |
| 1777800023 | 28.89° C | 25% | 1010.6 hPa | 0 mm | - | - | - |
| 1777792834 | 25.56° C | 34% | 1011.1 hPa | 0 mm | - | - | - |
| 1777792250 | 25° C | 35% | 1010.9 hPa | 0 mm | - | - | - |
| 1777789874 | 22.22° C | 41% | 1011.1 hPa | 0 mm | - | - | - |
| 1777788667 | 21.11° C | 42% | 1011.1 hPa | 0 mm | - | - | - |
| 1777784459 | 12.78° C | 81% | 1011.3 hPa | 0 mm | - | - | - |
| 1777781418 | 9.44° C | 81% | 1011.2 hPa | 0 mm | - | - | - |
| 1777778458 | 9.44° C | 82% | 1011.3 hPa | 0 mm | - | - | - |
| 1777771816 | 10.56° C | 78% | 1011.7 hPa | 0 mm | - | - | - |
| 1777765837 | 11.11° C | 78% | 1012.3 hPa | 0 mm | - | - | - |
| 1777764628 | 11.11° C | 79% | 1012.5 hPa | 0 mm | - | - | - |
* Rain latest hour (hover to see other rain measurements)
** Current wind speed in m/s (hover to see current wind gust speed)